METAR Data
IDs: Format: Raw Decoded Include TAF

Data at: 1924 UTC 14 Dec 2018

KLZZ 141915Z AUTO 30010G18KT 10SM OVC020 07/03 A3005 RMK AO2 T00670026
KLZZ 141755Z AUTO 33010G18KT 10SM OVC018 06/02 A3007 RMK AO2 T00590024 10059 20035
KLZZ 141735Z AUTO 33014G23KT 10SM OVC018 06/02 A3007 RMK AO2 T00560021
KLZZ 141715Z AUTO 33012G21KT 10SM OVC018 06/02 A3007 RMK AO2 T00570021
KLZZ 141655Z AUTO 32013G23KT 10SM OVC018 06/02 A3007 RMK AO2 T00570018
KLZZ 141635Z AUTO 33012G20KT 10SM OVC018 06/02 A3007 RMK AO2 T00550019
KLZZ 141615Z AUTO 33008G25KT 10SM OVC018 05/02 A3007 RMK AO2 T00540020
KLZZ 141555Z AUTO 33011G22KT 10SM OVC018 05/02 A3005 RMK AO2 T00510018
KLZZ 141535Z AUTO 33014G20KT 10SM OVC018 05/02 A3004 RMK AO2 T00500019
KLZZ 141515Z AUTO 33012G20KT 10SM OVC018 05/02 A3003 RMK AO2 T00480017
KLZZ 141455Z AUTO 32012G22KT 10SM OVC018 04/01 A3002 RMK AO2 LTG DSNT NE T00440014
KLZZ 141435Z AUTO 32012G20KT 290V350 10SM OVC018 04/01 A3002 RMK AO2 T00420012
KLZZ 141415Z AUTO 34011G22KT 10SM BKN020 OVC030 04/01 A3002 RMK AO2 T00400010
KLZZ 141355Z AUTO 33013G18KT 300V360 10SM SCT018 OVC030 04/01 A3002 RMK AO2 T00410010
KLZZ 141335Z AUTO 34011G17KT 10SM OVC018 04/01 A3001 RMK AO2 T00400009
KLZZ 141315Z AUTO 33011G18KT 10SM OVC018 04/01 A3001 RMK AO2 T00380010
KLZZ 141255Z AUTO 32011G20KT 10SM OVC018 04/01 A3000 RMK AO2 LTG DSNT NE T00370009
KLZZ 141235Z AUTO 32008G17KT 10SM OVC018 04/01 A3000 RMK AO2 T00360010
KLZZ 141215Z AUTO 32012G25KT 10SM OVC018 04/01 A2998 RMK AO2 T00360007
KLZZ 141155Z AUTO 33011G19KT 10SM OVC018 04/01 A2997 RMK AO2 60005 70006 T00350007 10037 20020
KLZZ 141135Z AUTO 32010G21KT 10SM OVC020 03/01 A2996 RMK AO2 T00340007
KLZZ 141115Z AUTO 32013G20KT 10SM OVC020 03/01 A2996 RMK AO2 T00330006
KLZZ 141055Z AUTO 32010G22KT 10SM OVC020 03/01 A2995 RMK AO2 T00320006
KLZZ 141035Z AUTO 32013G24KT 290V350 10SM BKN020 OVC024 03/01 A2995 RMK AO2 T00320006
KLZZ 141015Z AUTO 32017G25KT 10SM BKN020 OVC037 03/01 A2993 RMK AO2 T00320009
KLZZ 140955Z AUTO 32016G24KT 10SM BKN020 OVC037 03/01 A2993 RMK AO2 T00320010
KLZZ 140935Z AUTO 32016G24KT 10SM OVC020 03/01 A2992 RMK AO2 T00330013
KLZZ 140915Z AUTO 32017G27KT 10SM BKN020 OVC038 03/02 A2991 RMK AO2 T00330016
KLZZ 140855Z AUTO 32015G23KT 10SM SCT020 OVC037 03/02 A2990 RMK AO2 P0001 60005 T00320018
KLZZ 140835Z AUTO 31015G21KT 10SM SCT020 OVC039 03/02 A2990 RMK AO2 P0001 T00270016
KLZZ 140655Z AUTO 31016G24KT 10SM SCT016 OVC037 04/01 A2989 RMK AO2 T00350012
KLZZ 140635Z AUTO 31014G22KT 10SM BKN016 BKN020 OVC037 04/01 A2989 RMK AO2 T00350013
KLZZ 140615Z AUTO 31012G23KT 10SM SCT014 OVC020 04/02 A2989 RMK AO2 T00350015
KLZZ 140555Z AUTO 30013G22KT 10SM BKN020 OVC034 04/02 A2988 RMK AO2 60001 T00370015 10044 20037 401630037
KLZZ 140535Z AUTO 31016G23KT 10SM BKN018 OVC034 04/02 A2987 RMK AO2 T00370015
KLZZ 140515Z AUTO 31017G24KT 10SM SCT018 OVC036 04/02 A2987 RMK AO2 T00400017
KLZZ 140455Z AUTO 30014G26KT 10SM SCT018 SCT038 OVC044 04/02 A2986 RMK AO2 T00400018
KLZZ 140435Z AUTO 31019G28KT 10SM SCT016 SCT034 OVC044 04/02 A2985 RMK AO2 T00400020
KLZZ 140415Z AUTO 31016G24KT 10SM SCT014 SCT021 OVC049 04/02 A2985 RMK AO2 T00370018
KLZZ 140355Z AUTO 30015G27KT 10SM SCT016 BKN030 OVC049 04/02 A2984 RMK AO2 T00370020
KLZZ 140335Z AUTO 31015G23KT 10SM SCT018 BKN023 OVC049 04/02 A2985 RMK AO2 T00400020
KLZZ 140315Z AUTO 30012G20KT 10SM SCT014 BKN019 OVC025 04/02 A2984 RMK AO2 T00400023
KLZZ 140255Z AUTO 29012G21KT 10SM SCT012 BKN018 OVC023 04/02 A2984 RMK AO2 60001 T00390023
KLZZ 140235Z AUTO 30012G23KT 10SM BKN017 OVC024 04/03 A2984 RMK AO2 T00400025
KLZZ 140215Z AUTO 29015G20KT 10SM BKN017 OVC026 04/03 A2984 RMK AO2 T00410026
KLZZ 140155Z AUTO 29012G22KT 10SM BKN017 OVC026 04/03 A2984 RMK AO2 P0001 T00420027
KLZZ 140135Z AUTO 30012G20KT 10SM BKN019 OVC029 04/03 A2983 RMK AO2 T00430028
KLZZ 140115Z AUTO 30013G18KT 7SM -SN BKN019 OVC027 04/03 A2983 RMK AO2 T00410028
KLZZ 140055Z AUTO 30011G17KT 7SM BKN016 OVC027 04/03 A2983 RMK AO2 LTG DSNT N T00410026
KLZZ 140035Z AUTO 29012G17KT 7SM SCT017 OVC024 04/03 A2984 RMK AO2 T00400026
KLZZ 140015Z AUTO 30011G22KT 7SM SCT015 OVC021 04/03 A2983 RMK AO2 T00410025
KLZZ 132355Z AUTO 30011G19KT 5SM BR BKN018 BKN024 OVC030 04/03 A2983 RMK AO2 T00420027 10163 20042
KLZZ 132335Z AUTO 29012G18KT 4SM BR BKN017 OVC022 05/03 A2982 RMK AO2 T00460026
KLZZ 132315Z AUTO 29013G22KT 4SM BR OVC019 05/03 A2983 RMK AO2 T00500026
KLZZ 132255Z AUTO 29014G21KT 10SM BKN021 OVC029 06/02 A2982 RMK AO2 T00600021
KLZZ 132235Z AUTO 30013G23KT 10SM BKN021 OVC027 06/02 A2981 RMK AO2 T00600020
KLZZ 132215Z AUTO 28016G25KT 10SM BKN021 BKN030 OVC035 07/03 A2980 RMK AO2 T00700028
KLZZ 132155Z AUTO 30012G20KT 10SM BKN021 BKN028 OVC041 07/03 A2980 RMK AO2 T00700026
KLZZ 132135Z AUTO 29018G26KT 10SM SCT021 BKN031 BKN043 08/04 A2979 RMK AO2 T00840042
KLZZ 132115Z AUTO 27017G27KT 10SM SCT031 11/04 A2976 RMK AO2 LTG DSNT N AND NE T01130039
KLZZ 132055Z AUTO 27014G25KT 10SM CLR 12/05 A2975 RMK AO2 LTG DSNT N T01200047
KLZZ 132035Z AUTO 28014G21KT 10SM SCT100 12/04 A2975 RMK AO2 LTG DSNT N T01220043
KLZZ 132015Z AUTO 28023G33KT 10SM SCT050 SCT090 12/04 A2974 RMK AO2 T01230043
KLZZ 131955Z AUTO 28014G22KT 10SM CLR 15/04 A2972 RMK AO2 LTG DSNT N T01480036
KLZZ 131935Z AUTO 28017G25KT 10SM CLR 15/04 A2973 RMK AO2 LTG DSNT N T01460040
KLZZ 131915Z AUTO 29016G23KT 10SM CLR 15/04 A2974 RMK AO2 T01480041
KLZZ 131855Z AUTO 28015G23KT 10SM CLR 15/03 A2974 RMK AO2 T01460029
KLZZ 131835Z AUTO 30015G20KT 10SM CLR 16/05 A2974 RMK AO2 T01580050
KLZZ 131815Z AUTO 30009G15KT 10SM SCT100 16/05 A2973 RMK AO2 T01600054
KLZZ 131755Z AUTO 28010G18KT 10SM SCT100 15/05 A2975 RMK AO2 T01510050 10162 20116
KLZZ 131735Z AUTO 29017G24KT 10SM CLR 16/06 A2975 RMK AO2 T01550055
KLZZ 131615Z AUTO 28016G22KT 10SM CLR 16/08 A2973 RMK AO2 T01590076
KLZZ 131555Z AUTO 27015G22KT 10SM CLR 16/08 A2972 RMK AO2 T01560082
KLZZ 131535Z AUTO 26014G17KT 10SM CLR 15/10 A2972 RMK AO2 T01520096
KLZZ 131515Z AUTO 26011G15KT 10SM CLR 15/10 A2972 RMK AO2 LTG DSNT NE T01460103
KLZZ 131455Z AUTO 25009KT 10SM CLR 14/11 A2972 RMK AO2 T01400108
KLZZ 131435Z AUTO 25008KT 10SM CLR 13/11 A2970 RMK AO2 T01320110
KLZZ 131415Z AUTO 25006KT 10SM CLR 13/11 A2970 RMK AO2 T01260108
KLZZ 131355Z AUTO 25007KT 10SM CLR 12/11 A2970 RMK AO2 T01230107
KLZZ 131335Z AUTO 25006KT 10SM CLR 12/11 A2969 RMK AO2 T01200108
KLZZ 131315Z AUTO 24005KT 10SM SCT120 12/11 A2968 RMK AO2 T01210110
KLZZ 131255Z AUTO 24007KT 10SM OVC120 12/11 A2968 RMK AO2 T01230112
KLZZ 131235Z AUTO 24006KT 10SM BKN120 12/11 A2968 RMK AO2 T01220113
KLZZ 131215Z AUTO 23004KT 10SM SCT110 12/11 A2968 RMK AO2 T01180112
KLZZ 131155Z AUTO 23004KT 10SM CLR 12/11 A2967 RMK AO2 T01170112 10146 20111
KLZZ 131135Z AUTO 24003KT 10SM CLR 12/11 A2968 RMK AO2 T01150111
KLZZ 131115Z AUTO 24003KT 4SM BR CLR 11/11 A2967 RMK AO2 T01110107
KLZZ 131055Z AUTO 00000KT 10SM CLR 12/12 A2968 RMK AO2 T01220116
KLZZ 131035Z AUTO 00000KT 10SM CLR 13/12 A2968 RMK AO2 T01260122
KLZZ 131015Z AUTO 19003KT 10SM CLR 13/12 A2969 RMK AO2 LTG DSNT NE T01250120
KLZZ 130955Z AUTO 00000KT 10SM CLR 13/12 A2969 RMK AO2 T01270122
KLZZ 130935Z AUTO 00000KT 10SM CLR 13/12 A2970 RMK AO2 LTG DSNT E T01280122
KLZZ 130915Z AUTO 26003KT 10SM SCT009 13/12 A2972 RMK AO2 LTG DSNT NE T01270121
KLZZ 130855Z AUTO 00000KT 10SM BKN009 13/12 A2974 RMK AO2 LTG DSNT N THRU SE T01310124
KLZZ 130835Z AUTO 00000KT 10SM CLR 13/12 A2974 RMK AO2 T01300122
KLZZ 130815Z AUTO 19004KT 10SM CLR 13/12 A2975 RMK AO2 LTG DSNT N T01290121
KLZZ 130755Z AUTO 18003KT 10SM CLR 13/12 A2976 RMK AO2 T01280120
KLZZ 130735Z AUTO 00000KT 10SM CLR 13/12 A2976 RMK AO2 T01300121